createdAt,value
2023-01-23T00:02:15.641Z,21.46
2023-01-23T00:22:21.311Z,16.98
2023-01-23T00:42:27.063Z,16.03
2023-01-23T01:02:32.821Z,13.92
2023-01-23T01:22:38.572Z,12.24
2023-01-23T01:42:44.405Z,12.53
2023-01-23T02:02:50.306Z,11.54
2023-01-23T02:22:56.140Z,12.53
2023-01-23T02:43:01.894Z,12.67
2023-01-23T03:03:07.645Z,15.44
2023-01-23T03:23:13.374Z,17.76
2023-01-23T03:43:19.083Z,17.48
2023-01-23T04:03:24.831Z,16.23
2023-01-23T04:23:30.563Z,18.04
2023-01-23T04:43:36.299Z,17.24
2023-01-23T05:03:42.068Z,17.02
2023-01-23T05:23:47.813Z,16.27
2023-01-23T05:43:53.659Z,17.58
2023-01-23T06:03:59.462Z,17.16
2023-01-23T06:24:05.205Z,17.70
2023-01-23T06:44:13.053Z,16.54
2023-01-23T07:04:18.868Z,18.23
2023-01-23T07:24:24.619Z,18.45
2023-01-23T07:44:30.347Z,17.60
2023-01-23T08:04:36.210Z,19.01
2023-01-23T08:24:41.968Z,17.21
2023-01-23T08:44:47.738Z,18.10
2023-01-23T09:04:53.521Z,18.78
2023-01-23T09:24:59.427Z,17.63
2023-01-23T09:45:05.636Z,16.46
2023-01-23T10:05:11.421Z,16.06
2023-01-23T10:25:17.346Z,15.40
2023-01-23T10:45:23.384Z,13.05
2023-01-23T11:05:28.889Z,11.77
2023-01-23T11:25:34.805Z,12.00
2023-01-23T11:45:40.647Z,12.48
2023-01-23T12:05:46.447Z,9.79
2023-01-23T12:25:52.289Z,8.88
2023-01-23T12:45:58.141Z,9.80
2023-01-23T13:06:03.969Z,9.86
2023-01-23T13:26:09.810Z,8.63
2023-01-23T13:46:16.113Z,8.32
2023-01-23T14:06:21.087Z,7.18
2023-01-23T14:26:26.940Z,9.37
2023-01-23T14:46:32.790Z,8.80
2023-01-23T15:06:38.736Z,11.17
2023-01-23T15:26:44.498Z,13.39
2023-01-23T15:46:50.541Z,11.74
2023-01-23T16:06:56.244Z,10.15
2023-01-23T16:27:02.000Z,26.26
2023-01-23T16:47:07.715Z,27.38
2023-01-23T17:07:13.446Z,12.34
2023-01-23T17:27:19.222Z,12.99
2023-01-23T17:47:24.950Z,12.81
2023-01-23T18:07:30.745Z,11.59
2023-01-23T18:27:36.499Z,14.38
2023-01-23T18:47:42.249Z,12.32
2023-01-23T19:07:47.991Z,12.01
2023-01-23T19:27:53.796Z,12.39
2023-01-23T19:48:00.174Z,11.45
2023-01-23T20:08:06.670Z,10.76
2023-01-23T20:28:11.147Z,12.10
2023-01-23T20:48:16.902Z,11.27
2023-01-23T21:08:22.731Z,12.53
2023-01-23T21:28:28.688Z,11.58
2023-01-23T21:48:39.160Z,12.18
2023-01-23T22:08:34.868Z,12.93
2023-01-23T22:28:40.574Z,12.38
2023-01-23T22:48:46.337Z,11.18
2023-01-23T23:08:52.046Z,9.86
2023-01-23T23:28:57.788Z,11.24
2023-01-23T23:49:03.543Z,10.07
